createdAt,value
2019-02-20T00:00:57.946Z,98787.41
2019-02-20T00:06:05.053Z,98781.11
2019-02-20T00:11:10.238Z,98788.95
2019-02-20T00:16:15.427Z,98794.33
2019-02-20T00:21:20.629Z,98789.27
2019-02-20T00:26:26.054Z,98800.16
2019-02-20T00:31:31.258Z,98793.58
2019-02-20T00:36:36.479Z,98793.14
2019-02-20T00:41:41.997Z,98796.64
2019-02-20T00:46:56.029Z,98795.64
2019-02-20T00:52:13.571Z,98800.48
2019-02-20T00:57:19.143Z,98800.04
2019-02-20T01:02:24.367Z,98804.36
2019-02-20T01:07:30.273Z,98806.14
2019-02-20T01:12:35.454Z,98803.41
2019-02-20T01:17:40.648Z,98801.94
2019-02-20T01:22:46.173Z,98799.28
2019-02-20T01:27:51.374Z,98809.34
2019-02-20T01:32:56.819Z,98800.70
2019-02-20T01:38:02.088Z,98798.05
2019-02-20T01:43:07.607Z,98799.30
2019-02-20T01:48:12.791Z,98797.47
2019-02-20T01:53:20.051Z,98792.25
2019-02-20T01:58:25.225Z,98797.47
2019-02-20T02:03:30.406Z,98794.88
2019-02-20T02:08:35.760Z,98786.89
2019-02-20T02:13:41.256Z,98792.69
2019-02-20T02:18:46.818Z,98800.37
2019-02-20T02:23:52.773Z,98796.56
2019-02-20T02:28:58.279Z,98799.59
2019-02-20T02:34:03.463Z,98796.13
2019-02-20T02:39:09.351Z,98792.52
2019-02-20T02:44:14.617Z,98788.53
2019-02-20T02:49:20.242Z,98797.92
2019-02-20T02:54:25.839Z,98797.77
2019-02-20T02:59:31.357Z,98803.22
2019-02-20T03:04:36.541Z,98803.09
2019-02-20T03:09:42.156Z,98811.32
2019-02-20T03:14:47.339Z,98809.52
2019-02-20T03:19:52.550Z,98802.66
2019-02-20T03:24:57.780Z,98804.44
2019-02-20T03:30:03.304Z,98800.62
2019-02-20T03:35:09.440Z,98808.63
2019-02-20T03:40:14.660Z,98810.45
2019-02-20T03:45:20.202Z,98818.12
2019-02-20T03:50:26.526Z,98819.42
2019-02-20T03:55:32.051Z,98830.66
2019-02-20T04:00:38.076Z,98837.19
2019-02-20T04:05:43.271Z,98844.28
2019-02-20T04:10:48.457Z,98832.44
2019-02-20T04:15:54.741Z,98841.27
2019-02-20T04:20:59.951Z,98835.78
2019-02-20T04:26:05.451Z,98840.17
2019-02-20T04:31:10.538Z,98836.73
2019-02-20T04:36:15.759Z,98838.39
2019-02-20T04:41:21.365Z,98841.27
2019-02-20T04:46:27.437Z,98834.69
2019-02-20T04:51:33.326Z,98835.20
2019-02-20T04:56:38.492Z,98842.16
2019-02-20T05:01:43.595Z,98843.72
2019-02-20T05:06:48.687Z,98842.10
2019-02-20T05:11:54.201Z,98848.37
2019-02-20T05:16:59.398Z,98847.42
2019-02-20T05:22:04.618Z,98846.27
2019-02-20T05:27:10.047Z,98848.05
2019-02-20T05:32:15.243Z,98853.89
2019-02-20T05:37:20.830Z,98850.98
2019-02-20T05:42:26.847Z,98854.72
2019-02-20T05:47:32.219Z,98852.59
2019-02-20T05:52:38.510Z,98857.62
2019-02-20T05:57:43.928Z,98855.80
2019-02-20T06:02:48.932Z,98860.38
2019-02-20T06:07:54.439Z,98864.41
2019-02-20T06:13:00.219Z,98867.77
2019-02-20T06:18:05.803Z,98877.58
2019-02-20T06:23:11.325Z,98880.08
2019-02-20T06:28:16.772Z,98879.97
2019-02-20T06:33:22.286Z,98890.27
2019-02-20T06:38:27.308Z,98895.02
2019-02-20T06:43:32.700Z,98911.66
2019-02-20T06:48:38.112Z,98921.93
2019-02-20T06:53:43.015Z,98924.55
2019-02-20T06:58:48.239Z,98927.33
2019-02-20T07:03:53.330Z,98928.80
2019-02-20T07:09:22.863Z,98932.72
2019-02-20T07:14:58.018Z,98933.75
2019-02-20T07:20:21.943Z,98935.26
2019-02-20T07:26:05.706Z,98936.61
2019-02-20T07:31:10.879Z,98938.73
2019-02-20T07:36:16.038Z,98953.14
2019-02-20T07:41:21.193Z,98953.38
2019-02-20T07:46:26.428Z,98956.38
2019-02-20T07:51:32.625Z,98969.45
2019-02-20T07:56:37.703Z,98972.84
2019-02-20T08:01:43.029Z,98967.73
2019-02-20T08:06:48.126Z,98967.39
2019-02-20T08:11:53.224Z,98983.22
2019-02-20T08:16:58.362Z,98984.91
2019-02-20T08:22:03.491Z,98994.02
2019-02-20T08:27:09.278Z,98996.86
2019-02-20T08:32:14.693Z,99000.37
2019-02-20T08:37:20.218Z,99003.34
2019-02-20T08:42:25.630Z,99014.87
2019-02-20T08:47:31.097Z,99016.88
2019-02-20T08:52:36.694Z,99020.69
2019-02-20T08:57:42.019Z,99024.50
2019-02-20T09:02:47.176Z,99021.90
2019-02-20T09:07:52.186Z,99029.14
2019-02-20T09:12:57.941Z,99029.81
2019-02-20T09:18:03.464Z,99030.86
2019-02-20T09:23:10.127Z,99029.85
2019-02-20T09:28:16.988Z,99033.78
2019-02-20T09:33:22.971Z,99032.61
2019-02-20T09:38:28.142Z,99034.64
2019-02-20T09:43:33.302Z,99029.78
2019-02-20T09:48:38.548Z,99034.36
2019-02-20T09:53:43.715Z,99037.55
2019-02-20T09:58:49.018Z,99036.77
2019-02-20T10:03:54.209Z,99042.88
2019-02-20T10:08:59.966Z,99037.02
2019-02-20T10:14:05.210Z,99036.01
2019-02-20T10:19:11.504Z,99037.66
2019-02-20T10:24:17.633Z,99038.52
2019-02-20T10:29:23.484Z,99048.30
2019-02-20T10:34:29.011Z,99048.42
2019-02-20T10:39:34.097Z,99065.33
2019-02-20T10:44:39.190Z,99063.42
2019-02-20T10:49:44.485Z,99056.86
2019-02-20T10:54:57.414Z,99053.18
2019-02-20T10:59:56.644Z,99050.48
2019-02-20T11:05:01.814Z,99056.52
2019-02-20T11:10:07.564Z,99059.88
2019-02-20T11:15:13.410Z,99060.09
2019-02-20T11:20:18.910Z,99054.87
2019-02-20T11:25:24.150Z,99049.73
2019-02-20T11:30:29.385Z,99042.29
2019-02-20T11:35:34.567Z,99039.57
2019-02-20T11:40:41.130Z,99045.23
2019-02-20T11:45:46.368Z,99034.52
2019-02-20T11:50:52.566Z,99027.66
2019-02-20T11:55:57.796Z,99032.41
2019-02-20T12:01:04.002Z,99031.34
2019-02-20T12:06:10.429Z,99029.29
2019-02-20T12:11:15.875Z,99022.23
2019-02-20T12:16:21.103Z,99032.37
2019-02-20T12:21:26.289Z,99023.56
2019-02-20T12:26:35.154Z,99025.95
2019-02-20T12:31:38.470Z,99020.56
2019-02-20T12:36:43.758Z,99030.50
2019-02-20T12:41:49.189Z,99018.28
2019-02-20T12:46:54.556Z,99027.25
2019-02-20T12:52:00.178Z,99033.84
2019-02-20T12:57:08.073Z,99023.53
2019-02-20T13:02:13.385Z,99021.66
2019-02-20T13:07:18.792Z,99033.20
2019-02-20T13:12:23.963Z,99027.87
2019-02-20T13:17:29.735Z,99024.81
2019-02-20T13:22:35.298Z,99025.75
2019-02-20T13:27:40.550Z,99018.91
2019-02-20T13:32:47.169Z,99021.92
2019-02-20T13:37:52.365Z,99026.25
2019-02-20T13:42:57.455Z,99018.42
2019-02-20T13:48:02.696Z,99030.70
2019-02-20T13:53:07.929Z,99024.09
2019-02-20T13:58:13.967Z,99021.96
2019-02-20T14:03:19.548Z,99033.36
2019-02-20T14:08:24.779Z,99020.88
2019-02-20T14:13:29.905Z,99018.18
2019-02-20T14:18:35.361Z,99026.55
2019-02-20T14:23:40.535Z,99022.78
2019-02-20T14:28:45.963Z,99025.56
2019-02-20T14:33:51.933Z,99018.96
2019-02-20T14:38:57.376Z,99031.58
2019-02-20T14:44:02.607Z,99021.06
2019-02-20T14:49:09.480Z,99027.38
2019-02-20T14:54:15.133Z,99028.09
2019-02-20T14:59:20.355Z,99028.39
2019-02-20T15:04:27.113Z,99024.81
2019-02-20T15:09:32.677Z,99027.91
2019-02-20T15:14:38.691Z,99015.53
2019-02-20T15:19:45.124Z,99026.82
2019-02-20T15:24:50.862Z,99025.31
2019-02-20T15:29:56.715Z,99016.94
2019-02-20T15:35:01.885Z,99013.84
2019-02-20T15:40:08.304Z,99016.00
2019-02-20T15:45:13.750Z,99018.98
2019-02-20T15:50:18.981Z,99020.38
2019-02-20T15:55:24.507Z,99026.08
2019-02-20T16:00:29.769Z,99025.29
2019-02-20T16:05:35.549Z,99029.25
2019-02-20T16:10:40.789Z,99029.07
2019-02-20T16:15:45.966Z,99033.44
2019-02-20T16:20:51.232Z,99042.41
2019-02-20T16:25:56.742Z,99039.34
2019-02-20T16:31:02.170Z,99045.70
2019-02-20T16:36:07.396Z,99053.00
2019-02-20T16:41:13.401Z,99063.91
2019-02-20T16:46:19.663Z,99067.38
2019-02-20T16:51:24.914Z,99069.09
2019-02-20T16:56:30.157Z,99070.74
2019-02-20T17:01:35.954Z,99082.89
2019-02-20T17:06:41.310Z,99078.31
2019-02-20T17:11:46.804Z,99082.58
2019-02-20T17:16:52.199Z,99096.52
2019-02-20T17:21:58.213Z,99109.98
2019-02-20T17:27:03.444Z,99122.43
2019-02-20T17:32:08.785Z,99118.47
2019-02-20T17:37:14.339Z,99124.39
2019-02-20T17:42:19.847Z,99128.52
2019-02-20T17:47:25.091Z,99130.36
2019-02-20T17:52:30.267Z,99132.49
2019-02-20T17:57:35.504Z,99132.51
2019-02-20T18:02:40.830Z,99135.34
2019-02-20T18:07:49.725Z,99137.00
2019-02-20T18:12:52.959Z,99143.25
2019-02-20T18:17:58.127Z,99136.52
2019-02-20T18:23:03.455Z,99133.58
2019-02-20T18:28:08.701Z,99142.65
2019-02-20T18:33:13.879Z,99140.70
2019-02-20T18:38:20.672Z,99146.33
2019-02-20T18:43:27.572Z,99149.13
2019-02-20T18:48:33.702Z,99153.44
2019-02-20T18:53:39.203Z,99162.32
2019-02-20T18:58:45.392Z,99171.54
2019-02-20T19:03:51.664Z,99171.73
2019-02-20T19:09:07.046Z,99179.45
2019-02-20T19:14:19.707Z,99185.23
2019-02-20T19:20:18.209Z,99188.34
2019-02-20T19:26:08.353Z,99185.39
2019-02-20T19:32:21.303Z,99194.25
2019-02-20T19:37:47.742Z,99193.59
2019-02-20T19:43:27.507Z,99190.31
2019-02-20T19:48:59.009Z,99194.09
2019-02-20T19:54:37.957Z,99208.73
2019-02-20T20:00:09.945Z,99201.33
2019-02-20T20:06:23.606Z,99205.45
2019-02-20T20:12:27.186Z,99209.39
2019-02-20T20:17:55.401Z,99205.79
2019-02-20T20:23:32.468Z,99198.86
2019-02-20T20:29:06.174Z,99203.29
2019-02-20T20:34:47.224Z,99204.77
2019-02-20T20:40:33.634Z,99209.53
2019-02-20T20:45:48.931Z,99209.82
2019-02-20T20:51:30.137Z,99208.64
2019-02-20T20:57:04.982Z,99210.07
2019-02-20T21:02:27.131Z,99210.86
2019-02-20T21:08:03.394Z,99209.80
2019-02-20T21:13:31.762Z,99200.25
2019-02-20T21:19:21.553Z,99206.75
2019-02-20T21:24:47.352Z,99212.12
2019-02-20T21:29:59.252Z,99209.34
2019-02-20T21:35:31.439Z,99202.11
2019-02-20T21:40:55.006Z,99203.88
2019-02-20T21:47:02.539Z,99199.11
2019-02-20T21:53:04.097Z,99197.77
2019-02-20T21:58:41.323Z,99206.94
2019-02-20T22:04:33.472Z,99207.23
2019-02-20T22:10:16.596Z,99203.56
2019-02-20T22:15:59.963Z,99202.52
2019-02-20T22:21:43.360Z,99203.30
2019-02-20T22:27:29.281Z,99199.81
2019-02-20T22:33:02.654Z,99203.53
2019-02-20T22:38:56.349Z,99215.63
2019-02-20T22:44:50.592Z,99211.78
2019-02-20T22:50:48.256Z,99211.04
2019-02-20T22:56:20.102Z,99211.84
2019-02-20T23:01:51.851Z,99217.95
2019-02-20T23:07:38.612Z,99221.05
2019-02-20T23:13:22.377Z,99222.72
2019-02-20T23:18:27.924Z,99215.48
2019-02-20T23:23:33.869Z,99222.17
2019-02-20T23:28:39.239Z,99233.81
2019-02-20T23:33:45.117Z,99228.33
2019-02-20T23:38:51.098Z,99232.51
2019-02-20T23:43:56.592Z,99234.73
2019-02-20T23:49:02.063Z,99254.83
2019-02-20T23:54:07.909Z,99250.28
2019-02-20T23:59:14.318Z,99252.23
